バンクーバー の空港の天気 - METARとTAF

バンクーバー国際空港 ( CYVR / YVR ) - カナダ ブリティッシュコロンビア州バンクーバー
飛行場実況気象(Metar)
観測時間11/30 12:00 PST (11/30 20:00 UTC)
風向・風速西 14m/s 瞬間風速17m/s
視程10km以上
天気現象
少しの雲 雲底高度 610m
少しの雲 雲底高度 910m
少しの雲 雲底高度 7620m
気温9℃
湿度76%
気圧1016.2hPa
METARCYVR 302000Z 27027G34KT 20SM FEW020 FEW030 FEW250 09/05 A3001 RMK CU1SC1CI1 CU TR SC TR CI TR SLP162
過去の天気等 Google飛行場航空写真 Wunderground天気予報

過去48時間のMETAR

飛行場予報(TAF)
発表時間: 11/30 09:45 PST (11/30 17:45 UTC)
予報対象時間: 30日10時 PST ~ 1日16時 PST
風向・風速西 10m/s 瞬間風速 18m/s
視程10km以上
少しの雲 雲底高度 460m
全天の8割程度の雲 雲底高度 1220m
30日10時 PST ~ 30日16時 PST に一時的に
全天の4割程度の雲 雲底高度 1220m
30日12時 PST ~ 30日14時 PST に徐々に
風向・風速西 8m/s 瞬間風速 13m/s
30日16時 PST から
風向・風速西北西 6m/s
視程10km以上
全天の4割程度の雲 雲底高度 1220m
30日16時 PST ~ 30日20時 PST に一時的に
全天の8割程度の雲 雲底高度 1220m
30日22時 PST ~ 30日24時 PST に徐々に
風向・風速西北西 3m/s
1日1時 PST から
風向・風速不定 2m/s
視程10km以上
なし
1日7時 PST から
風向・風速東北東 3m/s
視程10km以上
少しの雲 雲底高度 910m
1日15時 PST から
風向・風速西北西 3m/s
視程10km以上
なし
TAF CYVR 301745Z 3018/0124 28020G35KT P6SM FEW015 BKN040
TEMPO 3018/3024 SCT040
BECMG 3020/3022 28015G25KT
FM010000 29012KT P6SM SCT040
TEMPO 0100/0104 BKN040
BECMG 0106/0108 29005KT
FM010900 VRB03KT P6SM SKC
FM011500 07006KT P6SM FEW030
FM012300 29005KT P6SM SKC RMK NXT FCST BY 302100Z